createdAt,value
2022-10-24T00:01:16.080Z,80.78
2022-10-24T00:03:43.349Z,80.40
2022-10-24T00:06:11.549Z,80.75
2022-10-24T00:08:39.021Z,80.64
2022-10-24T00:11:30.656Z,80.80
2022-10-24T00:13:58.005Z,80.73
2022-10-24T00:16:24.582Z,80.78
2022-10-24T00:18:51.229Z,80.77
2022-10-24T00:21:17.930Z,80.78
2022-10-24T00:23:45.374Z,80.68
2022-10-24T00:26:12.915Z,80.91
2022-10-24T00:28:40.709Z,80.79
2022-10-24T00:31:13.779Z,80.98
2022-10-24T00:33:41.005Z,81.00
2022-10-24T00:36:12.853Z,80.48
2022-10-24T00:38:39.545Z,80.65
2022-10-24T00:41:06.192Z,81.36
2022-10-24T00:43:32.848Z,80.99
2022-10-24T00:46:03.553Z,80.83
2022-10-24T00:48:45.295Z,80.78
2022-10-24T00:51:26.564Z,80.80
2022-10-24T00:56:34.517Z,80.69
2022-10-24T00:59:04.170Z,80.75
2022-10-24T01:01:31.876Z,81.29
2022-10-24T01:03:58.518Z,81.20
2022-10-24T01:06:46.826Z,81.45
2022-10-24T01:09:26.775Z,81.41
2022-10-24T01:12:04.042Z,81.33
2022-10-24T01:14:33.425Z,81.15
2022-10-24T01:17:18.750Z,81.21
2022-10-24T01:20:03.588Z,81.20
2022-10-24T01:23:03.886Z,81.16
2022-10-24T01:25:52.233Z,81.17
2022-10-24T01:28:23.382Z,81.17
2022-10-24T01:30:56.735Z,81.14
2022-10-24T01:33:38.030Z,81.68
2022-10-24T01:36:20.257Z,81.27
2022-10-24T01:38:56.527Z,81.58
2022-10-24T01:41:26.317Z,81.27
2022-10-24T01:44:07.145Z,81.33
2022-10-24T01:46:41.673Z,81.49
2022-10-24T01:49:14.030Z,81.17
2022-10-24T01:51:42.286Z,81.55
2022-10-24T01:54:10.040Z,81.61
2022-10-24T01:56:36.741Z,81.79
2022-10-24T01:59:29.430Z,81.59
2022-10-24T02:02:12.813Z,81.52
2022-10-24T02:04:48.274Z,81.95
2022-10-24T02:07:18.326Z,81.76
2022-10-24T02:09:49.665Z,81.87
2022-10-24T02:12:18.573Z,81.86
2022-10-24T02:14:54.025Z,81.70
2022-10-24T02:17:20.766Z,81.63
2022-10-24T02:19:48.477Z,82.04
2022-10-24T02:22:19.525Z,81.86
2022-10-24T02:24:54.486Z,81.42
2022-10-24T02:27:29.882Z,81.87
2022-10-24T02:30:19.229Z,81.78
2022-10-24T02:32:50.276Z,81.33
2022-10-24T02:35:20.225Z,81.74
2022-10-24T02:37:51.723Z,81.66
2022-10-24T02:40:20.571Z,81.38
2022-10-24T02:42:51.266Z,81.62
2022-10-24T02:45:18.970Z,81.33
2022-10-24T02:47:47.260Z,81.59
2022-10-24T02:50:14.485Z,81.71
2022-10-24T02:52:43.474Z,81.65
2022-10-24T02:55:11.854Z,81.69
2022-10-24T02:57:39.346Z,81.56
2022-10-24T03:00:06.790Z,81.95
2022-10-24T03:02:33.586Z,81.96
2022-10-24T03:05:00.420Z,81.95
2022-10-24T03:07:27.059Z,81.83
2022-10-24T03:09:53.678Z,81.89
2022-10-24T03:12:20.251Z,81.98
2022-10-24T03:14:46.839Z,82.29
2022-10-24T03:17:13.392Z,82.08
2022-10-24T03:19:39.985Z,82.09
2022-10-24T03:22:06.586Z,82.09
2022-10-24T03:24:44.086Z,82.07
2022-10-24T03:27:19.824Z,82.43
2022-10-24T03:29:46.376Z,82.35
2022-10-24T03:32:13.042Z,82.44
2022-10-24T03:34:39.814Z,82.17
2022-10-24T03:37:06.416Z,82.23
2022-10-24T03:39:33.004Z,82.35
2022-10-24T03:41:59.618Z,82.10
2022-10-24T03:44:26.247Z,82.18
2022-10-24T03:46:52.916Z,82.45
2022-10-24T03:49:19.585Z,82.45
2022-10-24T03:51:46.353Z,82.16
2022-10-24T03:54:15.328Z,82.21
2022-10-24T03:56:48.012Z,82.25
2022-10-24T03:59:14.788Z,82.09
2022-10-24T04:01:41.684Z,82.10
2022-10-24T04:04:08.557Z,82.39
2022-10-24T04:06:36.553Z,82.27
2022-10-24T04:09:04.388Z,82.55
2022-10-24T04:11:31.064Z,82.39
2022-10-24T04:13:58.134Z,82.14
2022-10-24T04:16:24.948Z,82.45
2022-10-24T04:18:51.715Z,82.60
2022-10-24T04:21:21.535Z,82.74
2022-10-24T04:23:49.054Z,82.89
2022-10-24T04:26:17.484Z,82.49
2022-10-24T04:28:46.799Z,82.71
2022-10-24T04:31:16.892Z,82.62
2022-10-24T04:33:46.521Z,82.67
2022-10-24T04:36:13.102Z,82.86
2022-10-24T04:38:40.914Z,82.83
2022-10-24T04:41:11.193Z,82.94
2022-10-24T04:43:39.596Z,82.80
2022-10-24T04:46:06.610Z,82.62
2022-10-24T04:48:33.335Z,82.73
2022-10-24T04:51:00.162Z,82.80
2022-10-24T04:53:26.776Z,82.79
2022-10-24T04:55:53.398Z,82.78
2022-10-24T04:58:20.906Z,82.87
2022-10-24T05:00:49.811Z,82.63
2022-10-24T05:03:20.103Z,82.69
2022-10-24T05:05:47.601Z,82.79
2022-10-24T05:08:14.364Z,82.47
2022-10-24T05:10:41.098Z,82.81
2022-10-24T05:13:08.141Z,82.99
2022-10-24T05:15:34.923Z,82.94
2022-10-24T05:18:01.511Z,83.12
2022-10-24T05:20:28.496Z,83.00
2022-10-24T05:22:55.110Z,82.87
2022-10-24T05:25:21.882Z,83.03
2022-10-24T05:27:48.637Z,82.93
2022-10-24T05:30:15.493Z,83.16
2022-10-24T05:32:42.902Z,83.18
2022-10-24T05:35:10.494Z,83.17
2022-10-24T05:37:39.078Z,83.09
2022-10-24T05:40:08.466Z,83.22
2022-10-24T05:42:36.325Z,82.96
2022-10-24T05:45:03.941Z,83.31
2022-10-24T05:47:30.550Z,83.30
2022-10-24T05:49:57.113Z,83.25
2022-10-24T05:52:23.713Z,83.39
2022-10-24T05:54:55.816Z,83.26
2022-10-24T05:57:33.293Z,83.47
2022-10-24T06:00:00.673Z,83.58
2022-10-24T06:02:27.554Z,83.38
2022-10-24T06:04:56.268Z,83.22
2022-10-24T06:07:23.199Z,83.43
2022-10-24T06:09:49.790Z,83.36
2022-10-24T06:12:16.721Z,83.51
2022-10-24T06:14:44.676Z,83.13
2022-10-24T06:17:12.139Z,83.64
2022-10-24T06:19:39.638Z,83.37
2022-10-24T06:22:07.618Z,83.51
2022-10-24T06:24:35.887Z,83.48
2022-10-24T06:27:03.555Z,83.28
2022-10-24T06:29:30.299Z,83.27
2022-10-24T06:31:56.998Z,83.31
2022-10-24T06:34:23.627Z,83.17
2022-10-24T06:36:50.224Z,83.41
2022-10-24T06:39:16.891Z,83.36
2022-10-24T06:41:43.468Z,83.04
2022-10-24T06:44:11.125Z,83.07
2022-10-24T06:46:38.253Z,82.97
2022-10-24T06:49:04.919Z,82.97
2022-10-24T06:51:31.622Z,82.82
2022-10-24T06:53:58.971Z,82.92
2022-10-24T06:56:25.801Z,83.01
2022-10-24T06:58:52.484Z,83.45
2022-10-24T07:01:23.532Z,82.97
2022-10-24T07:03:50.952Z,82.81
2022-10-24T07:06:20.312Z,83.01
2022-10-24T07:08:47.672Z,82.63
2022-10-24T07:11:14.820Z,82.72
2022-10-24T07:13:41.525Z,82.90
2022-10-24T07:16:08.402Z,82.79
2022-10-24T07:18:35.379Z,82.93
2022-10-24T07:21:03.994Z,82.62
2022-10-24T07:23:31.375Z,82.22
2022-10-24T07:26:05.894Z,82.26
2022-10-24T07:28:33.538Z,82.31
2022-10-24T07:31:00.791Z,82.37
2022-10-24T07:33:27.781Z,82.08
2022-10-24T07:35:54.801Z,82.09
2022-10-24T07:38:21.626Z,81.95
2022-10-24T07:40:48.262Z,81.94
2022-10-24T07:43:15.441Z,81.63
2022-10-24T07:45:44.702Z,81.69
2022-10-24T07:48:13.329Z,81.76
2022-10-24T07:50:45.273Z,82.31
2022-10-24T07:53:12.920Z,81.68
2022-10-24T07:55:43.946Z,81.56
2022-10-24T07:58:11.308Z,81.59
2022-10-24T08:00:44.027Z,81.43
2022-10-24T08:03:11.704Z,81.65
2022-10-24T08:05:40.239Z,81.44
2022-10-24T08:10:53.772Z,81.60
2022-10-24T08:13:20.379Z,81.55
2022-10-24T08:15:47.110Z,81.84
2022-10-24T08:18:13.760Z,81.06
2022-10-24T08:20:40.462Z,81.50
2022-10-24T08:23:07.093Z,81.70
2022-10-24T08:25:33.625Z,80.90
2022-10-24T08:28:01.807Z,81.17
2022-10-24T08:30:30.553Z,81.50
2022-10-24T08:32:57.084Z,81.03
2022-10-24T08:35:23.674Z,80.93
2022-10-24T08:37:50.307Z,80.96
2022-10-24T08:40:19.650Z,80.73
2022-10-24T08:42:48.168Z,81.09
2022-10-24T08:45:27.190Z,80.45
2022-10-24T08:48:02.832Z,80.98
2022-10-24T08:50:35.598Z,80.70
2022-10-24T08:53:15.241Z,80.57
2022-10-24T08:55:50.363Z,80.89
2022-10-24T08:58:25.959Z,80.29
2022-10-24T09:00:56.518Z,80.48
2022-10-24T09:03:56.507Z,80.36
2022-10-24T09:06:31.294Z,80.18
2022-10-24T09:09:12.423Z,80.04
2022-10-24T09:11:55.694Z,80.06
2022-10-24T09:14:32.589Z,80.15
2022-10-24T09:17:22.396Z,80.41
2022-10-24T09:19:56.365Z,80.06
2022-10-24T09:22:25.505Z,79.92
2022-10-24T09:24:58.334Z,80.09
2022-10-24T09:27:29.578Z,80.15
2022-10-24T09:29:58.619Z,80.42
2022-10-24T09:32:27.848Z,80.32
2022-10-24T09:34:55.221Z,80.05
2022-10-24T09:37:44.222Z,79.72
2022-10-24T09:40:20.780Z,80.02
2022-10-24T09:42:49.444Z,80.05
2022-10-24T09:45:27.928Z,80.00
2022-10-24T09:48:00.122Z,80.35
2022-10-24T09:50:27.542Z,80.52
2022-10-24T09:52:57.977Z,80.12
2022-10-24T09:55:28.807Z,80.53
2022-10-24T09:57:59.467Z,79.85
2022-10-24T10:00:30.111Z,80.33
2022-10-24T10:03:06.060Z,80.33
2022-10-24T10:06:01.258Z,80.58
2022-10-24T10:08:31.671Z,80.19
2022-10-24T10:11:08.905Z,79.66
2022-10-24T10:13:45.366Z,80.38
2022-10-24T10:16:25.778Z,80.24
2022-10-24T10:19:05.290Z,80.08
2022-10-24T10:22:02.055Z,80.59
2022-10-24T10:24:41.046Z,80.49
2022-10-24T10:27:31.444Z,80.25
2022-10-24T10:30:16.490Z,80.23
2022-10-24T10:32:49.051Z,80.50
2022-10-24T10:35:26.851Z,80.41
2022-10-24T10:38:14.462Z,80.58
2022-10-24T10:40:46.160Z,80.28
2022-10-24T10:43:27.686Z,80.41
2022-10-24T10:46:13.190Z,80.05
2022-10-24T10:48:58.481Z,79.93
2022-10-24T10:51:47.759Z,80.11
2022-10-24T10:54:38.702Z,79.94
2022-10-24T10:57:31.376Z,79.86
2022-10-24T11:00:01.222Z,80.10
2022-10-24T11:03:05.458Z,80.20
2022-10-24T11:05:44.763Z,80.31
2022-10-24T11:08:27.087Z,80.39
2022-10-24T11:10:59.736Z,80.55
2022-10-24T11:13:36.009Z,80.15
2022-10-24T11:16:07.416Z,80.71
2022-10-24T11:18:40.550Z,80.75
2022-10-24T11:21:09.840Z,80.39
2022-10-24T11:23:45.359Z,80.58
2022-10-24T11:26:47.355Z,80.42
2022-10-24T11:29:24.773Z,80.31
2022-10-24T11:31:59.452Z,80.54
2022-10-24T11:34:43.097Z,81.09
2022-10-24T11:37:31.991Z,81.06
2022-10-24T11:40:04.900Z,80.78
2022-10-24T11:42:42.695Z,80.60
2022-10-24T11:45:15.640Z,81.03
2022-10-24T11:48:06.794Z,80.60
2022-10-24T11:50:48.260Z,80.60
2022-10-24T11:53:31.273Z,80.69
2022-10-24T11:56:12.086Z,80.50
2022-10-24T11:58:51.064Z,80.92
2022-10-24T12:01:20.386Z,80.95
2022-10-24T12:03:55.961Z,80.95
2022-10-24T12:07:04.463Z,80.89
2022-10-24T12:09:59.983Z,81.42
2022-10-24T12:13:05.596Z,80.56
2022-10-24T12:15:42.603Z,81.06
2022-10-24T12:18:24.497Z,80.91
2022-10-24T12:20:53.318Z,80.63
2022-10-24T12:23:23.518Z,80.71
2022-10-24T12:26:13.145Z,80.58
2022-10-24T12:28:40.642Z,80.84
2022-10-24T12:31:16.129Z,80.93
2022-10-24T12:33:44.148Z,81.00
2022-10-24T12:36:11.684Z,81.10
2022-10-24T12:38:38.220Z,81.24
2022-10-24T12:41:09.467Z,81.05
2022-10-24T12:43:42.843Z,81.00
2022-10-24T12:46:18.818Z,80.80
2022-10-24T12:48:58.167Z,80.75
2022-10-24T12:51:34.750Z,80.52
2022-10-24T12:54:04.320Z,80.96
2022-10-24T12:56:32.828Z,81.01
2022-10-24T12:59:31.730Z,80.25
2022-10-24T13:02:13.628Z,80.66
2022-10-24T13:05:17.678Z,80.74
2022-10-24T13:07:56.224Z,80.60
2022-10-24T13:10:47.363Z,81.27
2022-10-24T13:13:43.346Z,81.29
2022-10-24T13:16:37.686Z,80.92
2022-10-24T13:19:17.223Z,81.26
2022-10-24T13:21:48.590Z,80.92
2022-10-24T13:24:15.133Z,81.01
2022-10-24T13:26:55.749Z,81.53
2022-10-24T13:29:28.072Z,81.72
2022-10-24T13:32:16.301Z,81.53
2022-10-24T13:34:54.445Z,81.83
2022-10-24T13:37:28.297Z,81.57
2022-10-24T13:40:15.377Z,81.79
2022-10-24T13:42:56.612Z,81.54
2022-10-24T13:45:37.011Z,81.43
2022-10-24T13:48:17.009Z,81.79
2022-10-24T13:51:09.270Z,81.62
2022-10-24T13:53:46.205Z,81.82
2022-10-24T13:56:13.661Z,81.60
2022-10-24T13:58:44.615Z,82.08
2022-10-24T14:01:20.149Z,80.95
2022-10-24T14:03:48.114Z,81.75
2022-10-24T14:06:15.130Z,81.24
2022-10-24T14:08:57.485Z,81.53
2022-10-24T14:11:27.810Z,81.47
2022-10-24T14:14:04.074Z,81.16
2022-10-24T14:16:35.438Z,81.33
2022-10-24T14:19:29.616Z,81.61
2022-10-24T14:21:58.334Z,81.51
2022-10-24T14:24:25.187Z,81.12
2022-10-24T14:26:54.104Z,81.60
2022-10-24T14:29:33.985Z,81.90
2022-10-24T14:32:03.561Z,81.93
2022-10-24T14:34:36.123Z,82.04
2022-10-24T14:37:11.890Z,82.08
2022-10-24T14:39:39.414Z,81.86
2022-10-24T14:42:13.194Z,82.14
2022-10-24T14:44:42.024Z,82.38
2022-10-24T14:47:31.414Z,82.03
2022-10-24T14:49:58.501Z,82.48
2022-10-24T14:52:37.244Z,82.86
2022-10-24T14:55:24.708Z,82.30
2022-10-24T14:57:52.798Z,83.24
2022-10-24T15:00:22.448Z,82.61
2022-10-24T15:02:51.544Z,82.95
2022-10-24T15:05:22.361Z,83.54
2022-10-24T15:08:16.761Z,83.02
2022-10-24T15:10:43.876Z,83.44
2022-10-24T15:13:24.419Z,83.73
2022-10-24T15:15:55.253Z,83.45
2022-10-24T15:18:23.093Z,83.91
2022-10-24T15:20:52.713Z,83.62
2022-10-24T15:23:21.611Z,83.32
2022-10-24T15:26:00.044Z,83.31
2022-10-24T15:29:13.716Z,83.33
2022-10-24T15:31:46.594Z,83.55
2022-10-24T15:34:27.309Z,83.55
2022-10-24T15:36:53.900Z,83.86
2022-10-24T15:39:24.367Z,83.52
2022-10-24T15:41:51.378Z,84.09
2022-10-24T15:44:30.189Z,83.69
2022-10-24T15:46:57.454Z,84.44
2022-10-24T15:49:24.019Z,83.70
2022-10-24T15:51:51.268Z,83.96
2022-10-24T15:54:20.433Z,84.05
2022-10-24T15:56:47.293Z,84.21
2022-10-24T15:59:13.933Z,84.00
2022-10-24T16:01:48.738Z,84.16
2022-10-24T16:04:15.783Z,84.10
2022-10-24T16:06:42.774Z,84.69
2022-10-24T16:09:21.804Z,84.24
2022-10-24T16:11:48.998Z,84.38
2022-10-24T16:14:19.401Z,84.38
2022-10-24T16:16:46.230Z,83.89
2022-10-24T16:19:13.408Z,84.17
2022-10-24T16:21:41.274Z,84.22
2022-10-24T16:24:09.051Z,84.19
2022-10-24T16:26:36.603Z,84.91
2022-10-24T16:29:04.759Z,84.40
2022-10-24T16:31:32.258Z,84.37
2022-10-24T16:33:59.808Z,84.63
2022-10-24T16:36:26.631Z,84.33
2022-10-24T16:38:53.380Z,84.55
2022-10-24T16:41:24.089Z,83.93
2022-10-24T16:43:53.432Z,84.35
2022-10-24T16:46:21.937Z,84.83
2022-10-24T16:48:49.626Z,84.25
2022-10-24T16:51:19.804Z,84.64
2022-10-24T16:53:46.488Z,84.46
2022-10-24T16:56:14.523Z,84.52
2022-10-24T16:58:41.253Z,84.61
2022-10-24T17:01:14.182Z,84.50
2022-10-24T17:03:41.096Z,83.99
2022-10-24T17:06:08.257Z,84.89
2022-10-24T17:08:35.178Z,84.43
2022-10-24T17:11:01.917Z,84.85
2022-10-24T17:13:29.080Z,84.28
2022-10-24T17:15:56.693Z,84.56
2022-10-24T17:18:25.510Z,84.66
2022-10-24T17:20:58.985Z,84.46
2022-10-24T17:23:27.228Z,84.92
2022-10-24T17:25:54.899Z,84.57
2022-10-24T17:28:21.710Z,84.82
2022-10-24T17:30:48.478Z,85.09
2022-10-24T17:33:15.230Z,85.12
2022-10-24T17:35:52.942Z,84.35
2022-10-24T17:38:40.829Z,84.63
2022-10-24T17:41:22.412Z,84.76
2022-10-24T17:43:49.257Z,84.70
2022-10-24T17:46:16.337Z,84.76
2022-10-24T17:48:43.003Z,84.78
2022-10-24T17:51:17.466Z,84.91
2022-10-24T17:53:44.089Z,84.86
2022-10-24T17:58:43.782Z,85.08
2022-10-24T18:01:11.913Z,85.05
2022-10-24T18:03:38.916Z,84.87
2022-10-24T18:06:07.122Z,85.25
2022-10-24T18:08:34.090Z,85.61
2022-10-24T18:11:05.997Z,85.43
2022-10-24T18:13:32.839Z,84.99
2022-10-24T18:15:59.433Z,84.95
2022-10-24T18:18:27.819Z,85.04
2022-10-24T18:21:05.976Z,85.10
2022-10-24T18:23:53.528Z,85.16
2022-10-24T18:26:25.849Z,85.16
2022-10-24T18:28:54.815Z,85.85
2022-10-24T18:31:25.416Z,85.47
2022-10-24T18:33:55.235Z,85.81
2022-10-24T18:36:29.334Z,85.45
2022-10-24T18:38:57.602Z,85.79
2022-10-24T18:41:27.216Z,85.86
2022-10-24T18:43:54.259Z,85.61
2022-10-24T18:46:21.342Z,86.24
2022-10-24T18:48:48.284Z,85.75
2022-10-24T18:51:30.521Z,85.34
2022-10-24T18:54:03.437Z,85.95
2022-10-24T18:56:30.080Z,86.55
2022-10-24T18:58:57.813Z,85.86
2022-10-24T19:01:34.283Z,85.96
2022-10-24T19:04:09.179Z,85.43
2022-10-24T19:06:36.314Z,86.03
2022-10-24T19:09:03.149Z,86.36
2022-10-24T19:11:29.846Z,86.14
2022-10-24T19:13:56.567Z,86.19
2022-10-24T19:16:31.686Z,86.18
2022-10-24T19:19:02.733Z,85.70
2022-10-24T19:21:29.341Z,86.28
2022-10-24T19:23:55.921Z,86.44
2022-10-24T19:26:22.613Z,85.78
2022-10-24T19:28:49.202Z,86.28
2022-10-24T19:31:16.497Z,86.25
2022-10-24T19:33:43.166Z,86.45
2022-10-24T19:36:13.341Z,86.11
2022-10-24T19:38:43.498Z,86.40
2022-10-24T19:41:11.361Z,86.93
2022-10-24T19:43:38.525Z,86.22
2022-10-24T19:46:18.940Z,86.17
2022-10-24T19:48:49.305Z,86.67
2022-10-24T19:51:17.971Z,86.83
2022-10-24T19:53:45.032Z,86.80
2022-10-24T19:56:15.340Z,86.91
2022-10-24T19:58:42.867Z,86.85
2022-10-24T20:01:18.377Z,86.70
2022-10-24T20:03:47.012Z,86.17
2022-10-24T20:06:14.472Z,86.83
2022-10-24T20:08:41.482Z,86.63
2022-10-24T20:11:08.423Z,86.89
2022-10-24T20:13:35.545Z,86.85
2022-10-24T20:16:07.502Z,86.95
2022-10-24T20:18:35.948Z,86.74
2022-10-24T20:21:13.972Z,86.97
2022-10-24T20:23:41.767Z,86.71
2022-10-24T20:26:12.055Z,87.37
2022-10-24T20:28:43.096Z,87.35
2022-10-24T20:31:26.034Z,86.88
2022-10-24T20:33:52.985Z,87.17
2022-10-24T20:36:21.249Z,87.10
2022-10-24T20:38:47.942Z,87.45
2022-10-24T20:41:17.389Z,86.97
2022-10-24T20:43:44.061Z,87.31
2022-10-24T20:46:10.653Z,87.61
2022-10-24T20:48:37.253Z,87.46
2022-10-24T20:51:20.111Z,87.34
2022-10-24T20:53:47.238Z,87.76
2022-10-24T20:56:22.376Z,87.64
2022-10-24T20:58:53.402Z,87.29
2022-10-24T21:01:22.569Z,87.16
2022-10-24T21:03:50.520Z,87.50
2022-10-24T21:06:20.288Z,86.75
2022-10-24T21:08:51.541Z,87.58
2022-10-24T21:11:25.802Z,87.57
2022-10-24T21:13:54.513Z,87.56
2022-10-24T21:16:24.708Z,87.52
2022-10-24T21:18:53.037Z,87.46
2022-10-24T21:21:21.281Z,87.62
2022-10-24T21:23:52.601Z,87.85
2022-10-24T21:26:20.107Z,87.82
2022-10-24T21:28:46.731Z,87.76
2022-10-24T21:31:15.853Z,87.55
2022-10-24T21:33:43.100Z,87.47
2022-10-24T21:36:13.217Z,87.48
2022-10-24T21:38:40.606Z,87.95
2022-10-24T21:41:09.513Z,87.68
2022-10-24T21:43:38.524Z,87.91
2022-10-24T21:46:09.131Z,87.79
2022-10-24T21:48:40.449Z,87.54
2022-10-24T21:51:08.768Z,87.91
2022-10-24T21:54:03.151Z,87.51
2022-10-24T21:56:33.443Z,87.81
2022-10-24T22:01:40.755Z,88.22
2022-10-24T22:04:08.212Z,88.02
2022-10-24T22:06:36.311Z,87.83
2022-10-24T22:09:05.225Z,87.98
2022-10-24T22:11:32.922Z,88.09
2022-10-24T22:13:59.893Z,88.07
2022-10-24T22:16:29.252Z,88.21
2022-10-24T22:18:57.167Z,88.23
2022-10-24T22:21:32.244Z,88.13
2022-10-24T22:24:00.648Z,88.13
2022-10-24T22:26:28.205Z,88.19
2022-10-24T22:28:58.007Z,88.35
2022-10-24T22:31:29.150Z,88.47
2022-10-24T22:33:56.876Z,88.69
2022-10-24T22:36:38.824Z,88.45
2022-10-24T22:39:15.690Z,88.13
2022-10-24T22:41:43.014Z,88.82
2022-10-24T22:44:13.964Z,88.56
2022-10-24T22:46:59.632Z,88.24
2022-10-24T22:49:50.156Z,88.80
2022-10-24T22:52:17.124Z,88.77
2022-10-24T22:54:46.424Z,88.78
2022-10-24T22:57:13.386Z,88.89
2022-10-24T22:59:40.202Z,88.71
2022-10-24T23:02:22.170Z,88.61
2022-10-24T23:05:00.978Z,88.69
2022-10-24T23:07:38.237Z,88.52
2022-10-24T23:10:09.840Z,88.69
2022-10-24T23:12:39.477Z,88.83
2022-10-24T23:15:09.956Z,88.91
2022-10-24T23:17:36.754Z,89.22
2022-10-24T23:20:03.925Z,89.08
2022-10-24T23:22:32.612Z,89.34
2022-10-24T23:25:00.862Z,88.92
2022-10-24T23:27:32.364Z,89.08
2022-10-24T23:29:59.744Z,89.02
2022-10-24T23:32:31.726Z,89.35
2022-10-24T23:34:59.702Z,89.39
2022-10-24T23:37:39.657Z,89.03
2022-10-24T23:40:18.128Z,89.42
2022-10-24T23:42:46.268Z,89.00
2022-10-24T23:45:15.486Z,89.33
2022-10-24T23:48:23.374Z,89.17
2022-10-24T23:51:31.139Z,89.45
2022-10-24T23:53:58.357Z,89.07
2022-10-24T23:56:27.565Z,89.51
2022-10-24T23:58:55.259Z,89.06
